createdAt,value
2022-10-19T00:00:48.587Z,3.91
2022-10-19T00:03:18.285Z,3.86
2022-10-19T00:05:47.426Z,3.82
2022-10-19T00:08:14.002Z,3.91
2022-10-19T00:10:41.325Z,3.85
2022-10-19T00:13:08.199Z,3.77
2022-10-19T00:15:37.884Z,3.76
2022-10-19T00:18:04.525Z,3.64
2022-10-19T00:20:31.149Z,3.61
2022-10-19T00:22:57.731Z,3.51
2022-10-19T00:25:24.320Z,3.50
2022-10-19T00:27:51.287Z,3.40
2022-10-19T00:30:17.970Z,3.37
2022-10-19T00:32:44.558Z,3.39
2022-10-19T00:35:11.118Z,3.38
2022-10-19T00:37:37.681Z,3.41
2022-10-19T00:40:04.555Z,3.40
2022-10-19T00:42:31.331Z,3.43
2022-10-19T00:44:59.708Z,3.40
2022-10-19T00:47:26.370Z,3.33
2022-10-19T00:49:53.855Z,3.23
2022-10-19T00:52:22.199Z,3.27
2022-10-19T00:54:50.459Z,3.22
2022-10-19T00:57:17.370Z,3.12
2022-10-19T00:59:45.144Z,3.02
2022-10-19T01:02:11.915Z,3.00
2022-10-19T01:04:40.200Z,2.82
2022-10-19T01:07:08.102Z,2.77
2022-10-19T01:09:34.963Z,2.77
2022-10-19T01:12:01.521Z,2.66
2022-10-19T01:14:34.358Z,2.62
2022-10-19T01:17:09.877Z,2.69
2022-10-19T01:19:36.461Z,2.52
2022-10-19T01:22:02.986Z,2.57
2022-10-19T01:24:48.192Z,2.24
2022-10-19T01:27:27.701Z,2.39
2022-10-19T01:30:12.823Z,2.36
2022-10-19T01:32:48.563Z,2.25
2022-10-19T01:35:18.002Z,2.41
2022-10-19T01:37:50.401Z,2.23
2022-10-19T01:40:20.132Z,2.05
2022-10-19T01:42:50.742Z,1.96
2022-10-19T01:45:19.626Z,1.96
2022-10-19T01:47:50.224Z,1.99
2022-10-19T02:03:24.366Z,1.28
2022-10-19T02:05:52.133Z,1.46
2022-10-19T02:08:22.303Z,1.61
2022-10-19T02:10:51.151Z,1.77
2022-10-19T02:13:19.410Z,1.86
2022-10-19T02:15:47.936Z,1.78
2022-10-19T02:18:17.487Z,1.79
2022-10-19T02:20:44.433Z,1.78
2022-10-19T02:23:12.466Z,1.83
2022-10-19T02:25:39.132Z,1.83
2022-10-19T02:28:05.916Z,1.82
2022-10-19T02:30:32.549Z,1.69
2022-10-19T02:32:59.278Z,1.72
2022-10-19T02:35:25.966Z,1.75
2022-10-19T02:37:52.748Z,1.85
2022-10-19T02:40:19.378Z,1.86
2022-10-19T02:42:52.494Z,1.83
2022-10-19T02:45:23.929Z,1.81
2022-10-19T02:47:55.314Z,1.85
2022-10-19T02:50:23.237Z,1.75
2022-10-19T02:52:49.849Z,1.65
2022-10-19T02:55:16.440Z,1.62
2022-10-19T02:57:43.077Z,1.63
2022-10-19T03:00:10.156Z,1.52
2022-10-19T03:02:36.823Z,1.43
2022-10-19T03:05:04.064Z,1.41
2022-10-19T03:07:30.703Z,1.38
2022-10-19T03:09:57.420Z,1.40
2022-10-19T03:12:23.991Z,1.41
2022-10-19T03:14:50.528Z,1.39
2022-10-19T03:17:17.131Z,1.36
2022-10-19T03:19:43.844Z,1.39
2022-10-19T03:22:10.518Z,1.45
2022-10-19T03:24:37.182Z,1.57
2022-10-19T03:27:03.829Z,1.55
2022-10-19T03:29:30.403Z,1.49
2022-10-19T03:31:56.987Z,1.33
2022-10-19T03:34:23.613Z,1.27
2022-10-19T03:36:50.245Z,1.14
2022-10-19T03:39:17.144Z,1.11
2022-10-19T03:41:44.316Z,1.10
2022-10-19T03:44:11.349Z,1.05
2022-10-19T03:46:38.052Z,1.03
2022-10-19T03:49:04.899Z,0.98
2022-10-19T03:51:31.947Z,0.94
2022-10-19T03:53:59.976Z,1.00
2022-10-19T03:56:27.213Z,0.99
2022-10-19T03:58:54.940Z,0.91
2022-10-19T04:01:23.419Z,0.93
2022-10-19T04:03:54.627Z,0.89
2022-10-19T04:06:23.780Z,0.91
2022-10-19T04:08:50.467Z,0.93
2022-10-19T04:11:18.407Z,0.88
2022-10-19T04:13:47.784Z,0.89
2022-10-19T04:16:14.388Z,0.86
2022-10-19T04:18:41.049Z,0.77
2022-10-19T04:21:07.736Z,0.75
2022-10-19T04:23:35.361Z,0.71
2022-10-19T04:26:03.456Z,0.70
2022-10-19T04:28:30.046Z,0.70
2022-10-19T04:31:04.976Z,0.68
2022-10-19T04:33:31.817Z,0.61
2022-10-19T04:36:08.875Z,0.50
2022-10-19T04:38:36.001Z,0.52
2022-10-19T04:41:03.985Z,0.49
2022-10-19T04:43:30.555Z,0.49
2022-10-19T04:45:57.385Z,0.51
2022-10-19T04:48:23.984Z,0.52
2022-10-19T04:50:54.042Z,0.63
2022-10-19T04:53:20.746Z,0.54
2022-10-19T04:55:47.396Z,0.57
2022-10-19T04:58:13.985Z,0.59
2022-10-19T05:00:40.616Z,0.66
2022-10-19T05:03:07.294Z,0.74
2022-10-19T05:05:34.419Z,0.86
2022-10-19T05:08:01.016Z,0.91
2022-10-19T05:10:27.722Z,0.98
2022-10-19T05:12:54.472Z,1.04
2022-10-19T05:15:21.077Z,1.07
2022-10-19T05:17:47.637Z,1.14
2022-10-19T05:20:14.258Z,1.29
2022-10-19T05:22:40.805Z,1.39
2022-10-19T05:25:07.597Z,1.46
2022-10-19T05:27:34.531Z,1.58
2022-10-19T05:30:01.313Z,1.81
2022-10-19T05:32:28.184Z,1.86
2022-10-19T05:34:54.877Z,1.98
2022-10-19T05:37:21.753Z,2.18
2022-10-19T05:39:48.318Z,2.24
2022-10-19T05:42:14.895Z,2.34
2022-10-19T05:44:41.576Z,2.45
2022-10-19T05:47:08.239Z,2.64
2022-10-19T05:49:34.823Z,2.87
2022-10-19T05:52:01.420Z,3.08
2022-10-19T05:54:28.636Z,3.19
2022-10-19T05:56:55.922Z,3.30
2022-10-19T05:59:23.642Z,3.45
2022-10-19T06:01:50.455Z,3.56
2022-10-19T06:06:48.690Z,3.38
2022-10-19T06:09:15.343Z,3.63
2022-10-19T06:11:42.171Z,3.84
2022-10-19T06:14:11.732Z,4.00
2022-10-19T06:16:38.386Z,4.09
2022-10-19T06:19:05.633Z,3.96
2022-10-19T06:21:33.420Z,4.16
2022-10-19T06:24:02.512Z,4.31
2022-10-19T06:26:32.084Z,4.46
2022-10-19T06:29:00.666Z,4.65
2022-10-19T06:31:28.124Z,4.73
2022-10-19T06:33:57.006Z,4.72
2022-10-19T06:36:25.156Z,4.74
2022-10-19T06:38:53.180Z,5.04
2022-10-19T06:41:20.549Z,5.02
2022-10-19T06:43:51.358Z,5.11
2022-10-19T06:46:20.639Z,5.04
2022-10-19T06:48:54.767Z,5.07
2022-10-19T06:51:21.627Z,4.92
2022-10-19T06:53:49.001Z,5.05
2022-10-19T06:56:18.511Z,5.26
2022-10-19T06:58:45.156Z,5.23
2022-10-19T07:01:13.894Z,5.36
2022-10-19T07:03:41.110Z,5.37
2022-10-19T07:06:08.636Z,5.48
2022-10-19T07:08:36.358Z,5.71
2022-10-19T07:11:04.564Z,5.85
2022-10-19T07:13:31.184Z,5.84
2022-10-19T07:16:03.506Z,5.71
2022-10-19T07:18:30.277Z,5.83
2022-10-19T07:20:58.030Z,6.03
2022-10-19T07:23:26.702Z,6.14
2022-10-19T07:25:55.748Z,6.29
2022-10-19T07:28:22.652Z,6.10
2022-10-19T07:30:49.427Z,6.39
2022-10-19T07:35:47.823Z,6.64
2022-10-19T07:38:14.488Z,7.03
2022-10-19T07:40:44.850Z,6.72
2022-10-19T07:43:14.200Z,7.03
2022-10-19T07:45:41.895Z,7.31
2022-10-19T07:48:08.509Z,7.49
2022-10-19T07:50:35.174Z,7.80
2022-10-19T07:53:05.281Z,7.95
2022-10-19T07:55:33.811Z,8.00
2022-10-19T07:58:02.129Z,8.06
2022-10-19T08:00:29.871Z,8.13
2022-10-19T08:03:31.183Z,8.23
2022-10-19T08:05:43.375Z,8.46
2022-10-19T08:08:11.820Z,8.59
2022-10-19T08:10:39.550Z,8.63
2022-10-19T08:13:06.157Z,8.74
2022-10-19T08:15:32.824Z,8.93
2022-10-19T08:17:59.849Z,8.97
2022-10-19T08:20:26.946Z,9.15
2022-10-19T08:22:56.497Z,9.21
2022-10-19T08:25:25.930Z,9.32
2022-10-19T08:27:52.896Z,9.62
2022-10-19T08:30:19.699Z,9.68
2022-10-19T08:32:46.378Z,9.94
2022-10-19T08:35:13.031Z,10.10
2022-10-19T08:37:45.048Z,10.20
2022-10-19T08:40:21.088Z,10.08
2022-10-19T08:42:54.879Z,10.31
2022-10-19T08:45:38.163Z,10.47
2022-10-19T08:48:07.534Z,10.69
2022-10-19T08:50:38.805Z,10.70
2022-10-19T08:53:08.585Z,10.64
2022-10-19T08:55:41.493Z,10.92
2022-10-19T08:58:19.045Z,11.33
2022-10-19T09:00:45.646Z,11.42
2022-10-19T09:03:54.544Z,11.48
2022-10-19T09:06:24.916Z,11.64
2022-10-19T09:08:53.296Z,11.55
2022-10-19T09:11:26.094Z,11.86
2022-10-19T09:14:06.431Z,12.00
2022-10-19T09:16:35.217Z,12.00
2022-10-19T09:19:02.859Z,12.23
2022-10-19T09:21:43.266Z,12.45
2022-10-19T09:24:52.530Z,12.56
2022-10-19T09:27:23.241Z,12.74
2022-10-19T09:29:56.891Z,12.94
2022-10-19T09:32:43.781Z,13.10
2022-10-19T09:35:29.680Z,13.32
2022-10-19T09:37:56.530Z,13.43
2022-10-19T09:40:30.746Z,13.45
2022-10-19T09:42:58.887Z,13.55
2022-10-19T09:45:35.664Z,13.73
2022-10-19T09:48:08.674Z,13.79
2022-10-19T09:50:42.807Z,13.76
2022-10-19T09:53:15.974Z,14.01
2022-10-19T09:55:43.670Z,14.11
2022-10-19T09:58:13.067Z,14.15
2022-10-19T10:00:42.777Z,14.32
2022-10-19T10:03:28.154Z,14.41
2022-10-19T10:05:59.158Z,14.68
2022-10-19T10:08:33.885Z,15.07
2022-10-19T10:11:09.463Z,15.40
2022-10-19T10:13:37.820Z,15.42
2022-10-19T10:16:06.444Z,15.81
2022-10-19T10:18:36.076Z,16.00
2022-10-19T10:21:25.317Z,16.13
2022-10-19T10:24:12.365Z,16.32
2022-10-19T10:26:43.352Z,16.49
2022-10-19T10:29:19.166Z,16.74
2022-10-19T10:31:47.845Z,16.95
2022-10-19T10:34:37.942Z,17.12
2022-10-19T10:37:38.424Z,17.14
2022-10-19T10:40:06.484Z,17.41
2022-10-19T10:42:43.925Z,17.50
2022-10-19T10:45:17.213Z,17.81
2022-10-19T10:47:48.228Z,17.81
2022-10-19T10:50:21.768Z,17.93
2022-10-19T10:52:57.417Z,17.95
2022-10-19T10:55:24.143Z,18.00
2022-10-19T10:57:52.521Z,18.07
2022-10-19T11:00:20.671Z,18.01
2022-10-19T11:03:06.160Z,18.23
2022-10-19T11:05:40.995Z,18.50
2022-10-19T11:08:25.914Z,18.53
2022-10-19T11:10:59.541Z,18.77
2022-10-19T11:13:44.692Z,18.75
2022-10-19T11:16:13.631Z,18.88
2022-10-19T11:18:40.250Z,18.91
2022-10-19T11:21:13.041Z,18.83
2022-10-19T11:23:45.822Z,19.04
2022-10-19T11:26:30.982Z,18.99
2022-10-19T11:29:10.099Z,19.20
2022-10-19T11:31:48.300Z,19.06
2022-10-19T11:34:33.840Z,19.21
2022-10-19T11:37:13.598Z,19.13
2022-10-19T11:40:13.783Z,19.15
2022-10-19T11:42:59.204Z,19.27
2022-10-19T11:45:37.081Z,19.42
2022-10-19T11:48:06.396Z,19.57
2022-10-19T11:50:37.725Z,19.63
2022-10-19T11:53:23.326Z,19.94
2022-10-19T11:55:58.769Z,19.74
2022-10-19T11:58:33.739Z,19.78
2022-10-19T12:01:20.116Z,19.75
2022-10-19T12:03:55.960Z,19.89
2022-10-19T12:06:36.285Z,19.95
2022-10-19T12:09:14.338Z,20.22
2022-10-19T12:11:49.117Z,20.43
2022-10-19T12:14:22.585Z,20.30
2022-10-19T12:16:52.086Z,20.69
2022-10-19T12:19:21.510Z,20.32
2022-10-19T12:21:48.892Z,20.66
2022-10-19T12:24:18.483Z,20.64
2022-10-19T12:26:46.097Z,21.30
2022-10-19T12:29:15.958Z,21.90
2022-10-19T12:31:43.367Z,22.52
2022-10-19T12:34:10.040Z,23.08
2022-10-19T12:36:39.729Z,23.01
2022-10-19T12:39:18.591Z,24.24
2022-10-19T12:41:52.129Z,24.82
2022-10-19T12:44:47.206Z,25.28
2022-10-19T12:47:21.316Z,25.35
2022-10-19T12:49:57.233Z,26.19
2022-10-19T12:52:42.545Z,27.24
2022-10-19T12:55:16.738Z,26.96
2022-10-19T12:57:48.336Z,26.66
2022-10-19T13:00:22.593Z,27.25
2022-10-19T13:02:56.490Z,27.87
2022-10-19T13:05:24.150Z,27.18
2022-10-19T13:10:24.754Z,28.51
2022-10-19T13:12:52.063Z,28.01
2022-10-19T13:15:48.283Z,28.44
2022-10-19T13:18:17.003Z,27.68
2022-10-19T13:20:50.462Z,27.69
2022-10-19T13:23:17.653Z,27.64
2022-10-19T13:25:44.259Z,27.87
2022-10-19T13:28:11.038Z,27.87
2022-10-19T13:30:46.872Z,28.15
2022-10-19T13:33:25.581Z,27.79
2022-10-19T13:35:58.949Z,27.57
2022-10-19T13:38:26.572Z,28.27
2022-10-19T13:40:56.402Z,27.69
2022-10-19T13:43:26.816Z,27.83
2022-10-19T13:45:54.852Z,27.52
2022-10-19T13:48:29.341Z,27.22
2022-10-19T13:51:02.263Z,26.69
2022-10-19T13:53:40.888Z,26.96
2022-10-19T13:56:27.707Z,27.22
2022-10-19T13:59:06.319Z,27.70
2022-10-19T14:01:48.429Z,27.93
2022-10-19T14:04:20.998Z,27.43
2022-10-19T14:06:52.106Z,26.99
2022-10-19T14:09:44.452Z,27.56
2022-10-19T14:12:17.476Z,27.03
2022-10-19T14:14:44.595Z,27.01
2022-10-19T14:17:14.641Z,27.31
2022-10-19T14:19:43.845Z,27.56
2022-10-19T14:22:30.214Z,27.08
2022-10-19T14:25:05.994Z,26.72
2022-10-19T14:27:33.691Z,26.08
2022-10-19T14:30:00.673Z,25.88
2022-10-19T14:32:28.815Z,25.35
2022-10-19T14:34:59.348Z,24.98
2022-10-19T14:37:26.850Z,24.56
2022-10-19T14:39:58.121Z,24.27
2022-10-19T14:42:25.146Z,24.61
2022-10-19T14:44:51.743Z,24.53
2022-10-19T14:47:21.592Z,24.18
2022-10-19T14:49:48.618Z,24.43
2022-10-19T14:52:23.491Z,23.94
2022-10-19T14:54:52.976Z,23.82
2022-10-19T14:57:26.642Z,23.89
2022-10-19T14:59:56.897Z,23.70
2022-10-19T15:02:31.195Z,23.06
2022-10-19T15:04:59.705Z,23.13
2022-10-19T15:07:37.171Z,22.55
2022-10-19T15:10:05.437Z,21.65
2022-10-19T15:12:42.122Z,21.09
2022-10-19T15:15:18.183Z,20.68
2022-10-19T15:17:57.344Z,20.34
2022-10-19T15:20:32.487Z,19.67
2022-10-19T15:23:23.760Z,19.19
2022-10-19T15:25:58.756Z,18.75
2022-10-19T15:28:39.161Z,18.14
2022-10-19T15:31:23.939Z,17.91
2022-10-19T15:33:54.692Z,17.56
2022-10-19T15:36:22.431Z,17.37
2022-10-19T15:39:11.387Z,17.12
2022-10-19T15:41:45.746Z,16.84
2022-10-19T15:44:31.342Z,16.63
2022-10-19T15:47:13.126Z,16.40
2022-10-19T15:49:42.757Z,16.19
2022-10-19T15:52:14.649Z,16.09
2022-10-19T15:54:41.283Z,15.98
2022-10-19T15:57:22.821Z,15.84
2022-10-19T15:59:49.620Z,15.72
2022-10-19T16:02:16.250Z,15.54
2022-10-19T16:04:42.996Z,15.43
2022-10-19T16:07:24.760Z,15.23
2022-10-19T16:09:51.669Z,15.08
2022-10-19T16:12:19.511Z,14.94
2022-10-19T16:14:46.358Z,14.82
2022-10-19T16:17:13.821Z,14.59
2022-10-19T16:19:42.365Z,14.49
2022-10-19T16:22:09.378Z,14.37
2022-10-19T16:24:35.922Z,14.18
2022-10-19T16:27:03.026Z,14.10
2022-10-19T16:29:29.609Z,14.08
2022-10-19T16:31:56.240Z,13.99
2022-10-19T16:34:22.868Z,13.86
2022-10-19T16:36:49.408Z,13.72
2022-10-19T16:39:16.012Z,13.56
2022-10-19T16:41:43.885Z,13.39
2022-10-19T16:44:11.295Z,13.32
2022-10-19T16:46:38.077Z,13.32
2022-10-19T16:49:04.941Z,13.30
2022-10-19T16:51:36.092Z,13.22
2022-10-19T16:54:03.699Z,13.28
2022-10-19T16:56:30.970Z,13.28
2022-10-19T16:58:59.913Z,13.25
2022-10-19T17:01:27.122Z,13.20
2022-10-19T17:03:53.968Z,13.23
2022-10-19T17:06:20.958Z,13.12
2022-10-19T17:11:35.711Z,12.90
2022-10-19T17:14:05.288Z,12.73
2022-10-19T17:16:33.163Z,12.63
2022-10-19T17:19:00.761Z,12.50
2022-10-19T17:21:31.875Z,12.48
2022-10-19T17:24:00.506Z,12.47
2022-10-19T17:26:27.633Z,12.44
2022-10-19T17:28:57.201Z,12.38
2022-10-19T17:31:23.834Z,12.31
2022-10-19T17:33:50.899Z,12.25
2022-10-19T17:36:23.041Z,12.11
2022-10-19T17:38:49.803Z,11.95
2022-10-19T17:41:17.711Z,11.85
2022-10-19T17:43:45.609Z,11.82
2022-10-19T17:46:13.082Z,11.77
2022-10-19T17:48:40.744Z,11.82
2022-10-19T17:51:24.448Z,11.80
2022-10-19T17:53:51.165Z,11.82
2022-10-19T17:56:19.200Z,11.81
2022-10-19T17:58:46.201Z,11.79
2022-10-19T18:01:13.323Z,11.84
2022-10-19T18:03:41.292Z,11.89
2022-10-19T18:06:10.721Z,11.91
2022-10-19T18:08:39.569Z,11.85
2022-10-19T18:11:07.549Z,11.80
2022-10-19T18:13:34.855Z,11.79
2022-10-19T18:16:02.522Z,11.80
2022-10-19T18:18:30.802Z,11.42
2022-10-19T18:20:57.399Z,11.63
2022-10-19T18:23:25.210Z,11.46
2022-10-19T18:25:54.268Z,11.38
2022-10-19T18:28:21.119Z,11.48
2022-10-19T18:30:47.742Z,11.59
2022-10-19T18:33:14.385Z,11.27
2022-10-19T18:35:41.194Z,11.06
2022-10-19T18:38:08.192Z,10.90
2022-10-19T18:40:36.173Z,10.90
2022-10-19T18:43:08.767Z,10.87
2022-10-19T18:45:35.352Z,10.82
2022-10-19T18:48:01.956Z,11.01
2022-10-19T18:50:29.183Z,10.90
2022-10-19T18:52:55.826Z,10.49
2022-10-19T18:55:22.423Z,10.27
2022-10-19T18:57:49.020Z,10.19
2022-10-19T19:00:15.644Z,10.09
2022-10-19T19:02:46.847Z,10.01
2022-10-19T19:05:13.734Z,9.94
2022-10-19T19:07:40.307Z,9.94
2022-10-19T19:10:07.149Z,10.04
2022-10-19T19:12:34.146Z,10.20
2022-10-19T19:15:01.048Z,10.07
2022-10-19T19:17:27.598Z,9.78
2022-10-19T19:19:54.198Z,9.76
2022-10-19T19:22:20.916Z,9.58
2022-10-19T19:24:49.630Z,9.50
2022-10-19T19:27:16.285Z,9.44
2022-10-19T19:29:43.313Z,9.46
2022-10-19T19:32:09.896Z,9.48
2022-10-19T19:34:36.532Z,9.66
2022-10-19T19:37:04.197Z,9.89
2022-10-19T19:39:34.006Z,10.10
2022-10-19T19:42:00.551Z,10.12
2022-10-19T19:44:29.652Z,10.10
2022-10-19T19:46:56.957Z,10.04
2022-10-19T19:49:24.959Z,9.86
2022-10-19T19:51:52.317Z,9.72
2022-10-19T19:54:19.504Z,9.83
2022-10-19T19:56:46.123Z,9.98
2022-10-19T19:59:13.070Z,10.18
2022-10-19T20:01:39.967Z,10.20
2022-10-19T20:04:06.706Z,10.31
2022-10-19T20:06:34.362Z,10.36
2022-10-19T20:09:01.016Z,10.59
2022-10-19T20:11:28.772Z,10.75
2022-10-19T20:13:55.920Z,10.80
2022-10-19T20:16:26.667Z,10.78
2022-10-19T20:18:58.849Z,10.92
2022-10-19T20:21:27.623Z,10.88
2022-10-19T20:23:54.259Z,10.84
2022-10-19T20:26:22.530Z,10.97
2022-10-19T20:28:49.656Z,11.05
2022-10-19T20:31:16.241Z,11.18
2022-10-19T20:33:43.488Z,11.19
2022-10-19T20:36:11.718Z,11.42
2022-10-19T20:38:39.034Z,11.36
2022-10-19T20:41:08.672Z,11.30
2022-10-19T20:43:38.869Z,11.29
2022-10-19T20:46:06.436Z,11.48
2022-10-19T20:48:33.284Z,11.47
2022-10-19T20:51:09.509Z,11.39
2022-10-19T20:53:36.177Z,11.32
2022-10-19T20:56:05.312Z,11.47
2022-10-19T20:58:32.303Z,11.50
2022-10-19T21:01:04.761Z,11.52
2022-10-19T21:03:31.346Z,11.48
2022-10-19T21:05:57.891Z,11.27
2022-10-19T21:08:24.488Z,11.29
2022-10-19T21:10:51.135Z,11.26
2022-10-19T21:13:17.694Z,11.14
2022-10-19T21:15:44.274Z,11.42
2022-10-19T21:18:10.869Z,11.43
2022-10-19T21:20:37.481Z,11.31
2022-10-19T21:23:04.132Z,11.32
2022-10-19T21:25:31.658Z,11.22
2022-10-19T21:27:58.698Z,11.37
2022-10-19T21:30:26.090Z,11.37
2022-10-19T21:32:52.666Z,11.35
2022-10-19T21:35:19.319Z,11.45
2022-10-19T21:37:45.866Z,11.39
2022-10-19T21:40:12.920Z,11.41
2022-10-19T21:42:39.510Z,11.42
2022-10-19T21:45:28.710Z,11.49
2022-10-19T21:47:55.036Z,11.64
2022-10-19T21:50:21.606Z,11.80
2022-10-19T21:52:48.283Z,11.47
2022-10-19T21:55:14.876Z,11.36
2022-10-19T21:57:41.459Z,11.23
2022-10-19T22:00:08.380Z,11.27
2022-10-19T22:02:39.532Z,11.39
2022-10-19T22:05:06.221Z,11.48
2022-10-19T22:07:32.995Z,11.57
2022-10-19T22:09:59.728Z,11.56
2022-10-19T22:12:26.408Z,11.52
2022-10-19T22:14:52.994Z,11.59
2022-10-19T22:17:19.602Z,11.64
2022-10-19T22:19:46.239Z,11.66
2022-10-19T22:22:12.793Z,11.58
2022-10-19T22:24:39.477Z,11.66
2022-10-19T22:27:06.079Z,11.86
2022-10-19T22:29:32.682Z,11.73
2022-10-19T22:31:59.222Z,11.80
2022-10-19T22:34:25.779Z,11.73
2022-10-19T22:36:52.354Z,11.76
2022-10-19T22:39:18.958Z,11.78
2022-10-19T22:41:45.501Z,11.67
2022-10-19T22:44:12.061Z,11.64
2022-10-19T22:46:38.647Z,11.74
2022-10-19T22:49:05.266Z,11.90
2022-10-19T22:51:32.084Z,11.90
2022-10-19T22:53:58.628Z,11.71
2022-10-19T22:56:25.239Z,11.79
2022-10-19T22:58:51.824Z,11.72
2022-10-19T23:01:18.756Z,11.63
2022-10-19T23:03:45.351Z,11.77
2022-10-19T23:06:13.059Z,11.65
2022-10-19T23:08:39.828Z,11.80
2022-10-19T23:11:06.742Z,11.73
2022-10-19T23:13:33.390Z,11.73
2022-10-19T23:15:59.960Z,11.88
2022-10-19T23:18:26.526Z,11.86
2022-10-19T23:20:57.217Z,11.78
2022-10-19T23:23:23.821Z,11.91
2022-10-19T23:26:16.508Z,11.77
2022-10-19T23:28:44.298Z,11.64
2022-10-19T23:31:10.926Z,11.66
2022-10-19T23:33:37.560Z,11.57
2022-10-19T23:36:13.079Z,11.48
2022-10-19T23:38:39.653Z,11.46
2022-10-19T23:41:06.692Z,11.41
2022-10-19T23:43:33.418Z,11.27
2022-10-19T23:46:00.046Z,11.19
2022-10-19T23:48:26.679Z,11.18
2022-10-19T23:51:00.050Z,11.19
2022-10-19T23:53:27.159Z,11.16
2022-10-19T23:56:04.316Z,11.19
2022-10-19T23:58:31.159Z,11.23
